Time;durP1;ratioP1;P1;durP2;ratioP2;P2;SDS_P1;SDS_P2;PMS_P1;PMS_P2;Temp;Humidity;BMP_temperature;BMP_pressure;BME280_temperature;BME280_humidity;BME280_pressure;Samples;Min_cycle;Max_cycle;Signal;HPM_P1;HPM_P2
2021/04/18 00:02:10;;;;;;;;;;;5.50;99.90;;;;;;5063886;28;19929;-86
2021/04/18 00:04:37;;;;;;;;;;;5.50;99.90;;;;;;5050050;28;19936;-86
2021/04/18 00:07:05;;;;;;;;;;;5.50;99.90;;;;;;5051830;28;19929;-85
2021/04/18 00:09:32;;;;;;;;;;;5.40;99.90;;;;;;5070096;28;19939;-85
2021/04/18 00:11:59;;;;;;;;;;;5.40;99.90;;;;;;5054014;28;20090;-87
2021/04/18 00:14:26;;;;;;;;;;;5.40;99.90;;;;;;5061333;28;19925;-86
2021/04/18 00:16:54;;;;;;;;;;;5.30;99.90;;;;;;5067206;28;19929;-88
2021/04/18 00:19:33;;;;;;;;;;;5.20;99.90;;;;;;5065552;28;20277;-87
2021/04/18 00:22:01;;;;;;;;;;;5.30;99.90;;;;;;5035751;28;19928;-86
2021/04/18 00:24:28;;;;;;;;;;;5.20;99.90;;;;;;5052475;28;19924;-87
2021/04/18 00:26:56;;;;;;;;;;;5.20;99.90;;;;;;5070306;28;20059;-88
2021/04/18 00:29:24;;;;;;;;;;;5.10;99.90;;;;;;5071123;28;19928;-87
2021/04/18 00:31:51;;;;;;;;;;;5.00;99.90;;;;;;5072261;28;19930;-87
2021/04/18 00:34:19;;;;;;;;;;;5.00;99.90;;;;;;5054817;28;20293;-88
2021/04/18 00:36:47;;;;;;;;;;;5.10;99.90;;;;;;5053532;28;19933;-87
2021/04/18 00:39:14;;;;;;;;;;;5.10;99.90;;;;;;5034910;28;19956;-87
2021/04/18 00:41:42;;;;;;;;;;;5.00;99.90;;;;;;5050480;28;19929;-89
2021/04/18 00:44:11;;;;;;;;;;;5.00;99.90;;;;;;5065943;28;19924;-87
2021/04/18 00:46:39;;;;;;;;;;;5.00;99.90;;;;;;5040519;28;19925;-87
2021/04/18 00:49:07;;;;;;;;;;;5.00;99.90;;;;;;5034321;28;19928;-87
2021/04/18 00:51:35;;;;;;;;;;;4.90;99.90;;;;;;5055482;28;19940;-87
2021/04/18 00:54:02;;;;;;;;;;;4.90;99.90;;;;;;5072662;28;19924;-86
2021/04/18 00:56:30;;;;;;;;;;;4.70;99.90;;;;;;5072509;28;20507;-87
2021/04/18 00:58:57;;;;;;;;;;;4.80;99.90;;;;;;5050732;28;20408;-87
2021/04/18 01:01:26;;;;;;;;;;;4.80;99.90;;;;;;5060848;28;19928;-86
2021/04/18 01:03:55;;;;;;;;;;;4.70;99.90;;;;;;5036302;28;19932;-86
2021/04/18 01:06:22;;;;;;;;;;;4.70;99.90;;;;;;5054918;28;20015;-86
2021/04/18 01:08:49;;;;;;;;;;;4.60;99.90;;;;;;5045866;28;20459;-86
2021/04/18 01:11:17;;;;;;;;;;;4.60;99.90;;;;;;5054326;28;19932;-87
2021/04/18 01:13:45;;;;;;;;;;;4.50;99.90;;;;;;5056540;28;19935;-86
2021/04/18 01:16:14;;;;;;;;;;;4.50;99.90;;;;;;5039062;28;20295;-87
2021/04/18 01:18:41;;;;;;;;;;;4.50;99.90;;;;;;5062664;28;19928;-86
2021/04/18 01:21:13;;;;;;;;;;;4.40;99.90;;;;;;5063688;28;19951;-85
2021/04/18 01:23:56;;;;;;;;;;;2.20;99.90;;;;;;5044974;28;19924;-87
2021/04/18 01:26:34;;;;;;;;;;;4.30;99.90;;;;;;5052234;28;20206;-87
2021/04/18 01:29:02;;;;;;;;;;;4.20;99.90;;;;;;5043468;28;19925;-85
2021/04/18 01:31:30;;;;;;;;;;;4.20;99.90;;;;;;5058057;28;19929;-86
2021/04/18 01:33:58;;;;;;;;;;;4.20;99.90;;;;;;5045652;28;20328;-89
2021/04/18 01:36:25;;;;;;;;;;;4.20;99.90;;;;;;5045287;28;19929;-88
2021/04/18 01:38:53;;;;;;;;;;;4.30;99.90;;;;;;5071593;28;19912;-86
2021/04/18 01:41:21;;;;;;;;;;;4.20;99.90;;;;;;5055148;28;19928;-88
2021/04/18 01:43:51;;;;;;;;;;;4.10;99.90;;;;;;5041599;28;19925;-87
2021/04/18 01:46:18;;;;;;;;;;;4.10;99.90;;;;;;5059852;28;19931;-86
2021/04/18 01:48:48;;;;;;;;;;;4.10;99.90;;;;;;5078437;28;19947;-87
2021/04/18 01:51:17;;;;;;;;;;;4.10;99.90;;;;;;5063126;28;19932;-86
2021/04/18 01:53:44;;;;;;;;;;;;;;;;;;5047213;28;19935;-85
2021/04/18 01:56:11;;;;;;;;;;;4.00;99.90;;;;;;5062077;28;19924;-85
2021/04/18 01:58:39;;;;;;;;;;;4.00;99.90;;;;;;5060810;28;19935;-86
2021/04/18 02:01:27;;;;;;;;;;;4.00;99.90;;;;;;5063695;28;19923;-87
2021/04/18 02:03:56;;;;;;;;;;;3.90;99.90;;;;;;5070874;28;19939;-86
2021/04/18 02:06:25;;;;;;;;;;;3.80;99.90;;;;;;5088732;28;19933;-85
2021/04/18 02:09:02;;;;;;;;;;;3.70;99.90;;;;;;5055192;28;19913;-87
2021/04/18 02:11:39;;;;;;;;;;;3.60;99.90;;;;;;5057236;28;19924;-87
2021/04/18 02:14:13;;;;;;;;;;;3.60;99.90;;;;;;5068381;28;19931;-87
2021/04/18 02:16:52;;;;;;;;;;;3.50;99.90;;;;;;5067430;28;19931;-87
2021/04/18 02:19:20;;;;;;;;;;;3.50;99.90;;;;;;5086507;28;19925;-87
2021/04/18 02:21:48;;;;;;;;;;;3.40;99.90;;;;;;5049873;28;19924;-88
2021/04/18 02:24:16;;;;;;;;;;;3.40;99.90;;;;;;5055778;28;19925;-88
2021/04/18 02:26:43;;;;;;;;;;;3.30;99.90;;;;;;5049096;28;19925;-88
2021/04/18 02:29:16;;;;;;;;;;;3.30;99.90;;;;;;5048349;28;19925;-88
2021/04/18 02:31:57;;;;;;;;;;;3.30;99.90;;;;;;5055596;28;19932;-88
2021/04/18 02:34:26;;;;;;;;;;;3.30;99.90;;;;;;5042221;28;19925;-87
2021/04/18 02:36:53;;;;;;;;;;;3.20;99.90;;;;;;5058564;28;19936;-87
2021/04/18 02:39:21;;;;;;;;;;;3.20;99.90;;;;;;5043937;28;19929;-88
2021/04/18 02:42:09;;;;;;;;;;;3.10;99.90;;;;;;5119554;27;19912;-89
2021/04/18 02:44:38;;;;;;;;;;;3.00;99.90;;;;;;5110173;28;19936;-88
2021/04/18 02:47:06;;;;;;;;;;;3.10;99.90;;;;;;5070018;28;19935;-88
2021/04/18 02:49:38;;;;;;;;;;;3.00;99.90;;;;;;5052583;28;19925;-87
2021/04/18 02:52:05;;;;;;;;;;;3.10;99.90;;;;;;5097431;28;19928;-88
2021/04/18 02:54:33;;;;;;;;;;;3.20;99.90;;;;;;5102721;28;19935;-88
2021/04/18 02:57:03;;;;;;;;;;;3.10;99.90;;;;;;5065698;28;19929;-88
2021/04/18 02:59:31;;;;;;;;;;;3.10;99.90;;;;;;5072630;28;19925;-89
2021/04/18 03:01:59;;;;;;;;;;;3.00;99.90;;;;;;5099798;28;19925;-89
2021/04/18 03:04:31;;;;;;;;;;;3.00;99.90;;;;;;5074215;28;19925;-89
2021/04/18 03:06:59;;;;;;;;;;;3.00;99.90;;;;;;5076158;28;19932;-88
2021/04/18 03:09:26;;;;;;;;;;;2.90;99.90;;;;;;5061044;28;19928;-88
2021/04/18 03:11:54;;;;;;;;;;;3.10;99.90;;;;;;5079662;28;19928;-88
2021/04/18 03:14:32;;;;;;;;;;;2.90;99.90;;;;;;5091103;28;19924;-89
2021/04/18 03:16:59;;;;;;;;;;;2.80;99.90;;;;;;5090796;28;19943;-88
2021/04/18 03:19:38;;;;;;;;;;;2.80;99.90;;;;;;5067172;28;19932;-87
2021/04/18 03:22:06;;;;;;;;;;;2.80;99.90;;;;;;5084851;28;19931;-89
2021/04/18 03:24:36;;;;;;;;;;;2.70;99.90;;;;;;5083441;28;19924;-89
2021/04/18 03:27:07;;;;;;;;;;;2.70;99.90;;;;;;5079119;28;19935;-88
2021/04/18 03:29:37;;;;;;;;;;;2.70;99.90;;;;;;5077016;28;19925;-89
2021/04/18 03:32:04;;;;;;;;;;;2.70;99.90;;;;;;5060995;28;19925;-87
2021/04/18 03:34:33;;;;;;;;;;;2.60;99.90;;;;;;5075192;28;19928;-88
2021/04/18 03:37:01;;;;;;;;;;;2.60;99.90;;;;;;5059087;28;19932;-88
2021/04/18 03:39:30;;;;;;;;;;;2.60;99.90;;;;;;5075512;28;20392;-89
2021/04/18 03:41:58;;;;;;;;;;;2.60;99.90;;;;;;5100168;28;19925;-90
2021/04/18 03:44:27;;;;;;;;;;;2.60;99.90;;;;;;5092464;28;20253;-89
2021/04/18 03:46:54;;;;;;;;;;;2.60;99.90;;;;;;5069015;28;19928;-87
2021/04/18 03:49:36;;;;;;;;;;;2.60;99.90;;;;;;5077219;28;19935;-89
2021/04/18 03:52:14;;;;;;;;;;;2.60;99.90;;;;;;5060490;28;19926;-89
2021/04/18 03:54:42;;;;;;;;;;;2.50;99.90;;;;;;5060450;28;19935;-89
2021/04/18 03:57:10;;;;;;;;;;;2.50;99.90;;;;;;5062228;28;20042;-88
2021/04/18 03:59:38;;;;;;;;;;;2.50;99.90;;;;;;5071887;28;19924;-88
2021/04/18 04:02:08;;;;;;;;;;;2.50;99.90;;;;;;5074650;28;19928;-89
2021/04/18 04:04:38;;;;;;;;;;;2.50;99.90;;;;;;5071648;28;19925;-89
2021/04/18 04:07:06;;;;;;;;;;;2.50;99.90;;;;;;5071568;28;19913;-89
2021/04/18 04:09:35;;;;;;;;;;;2.50;99.90;;;;;;5075849;28;19931;-88
2021/04/18 04:12:10;;;;;;;;;;;2.40;99.90;;;;;;5071536;28;19929;-90
2021/04/18 04:14:43;;;;;;;;;;;2.40;99.90;;;;;;5068572;28;19925;-90
2021/04/18 04:17:12;;;;;;;;;;;2.30;99.90;;;;;;5075851;28;19925;-90
2021/04/18 04:19:57;;;;;;;;;;;2.40;99.90;;;;;;5078028;28;19928;-91
2021/04/18 04:22:36;;;;;;;;;;;2.20;99.90;;;;;;5080894;28;19924;-90
2021/04/18 04:25:10;;;;;;;;;;;2.30;99.90;;;;;;5067169;28;19931;-90
2021/04/18 04:27:38;;;;;;;;;;;2.30;99.90;;;;;;5067416;28;19924;-90
2021/04/18 04:30:06;;;;;;;;;;;2.30;99.90;;;;;;5056282;28;19940;-90
2021/04/18 04:32:34;;;;;;;;;;;1.00;99.90;;;;;;5063695;28;19925;-89
2021/04/18 04:35:01;;;;;;;;;;;2.20;99.90;;;;;;5082692;28;19924;-89
2021/04/18 04:37:28;;;;;;;;;;;2.20;99.90;;;;;;5050066;28;19932;-89
2021/04/18 04:39:55;;;;;;;;;;;2.10;99.90;;;;;;5082720;28;19932;-90
2021/04/18 04:42:23;;;;;;;;;;;2.10;99.90;;;;;;5054616;28;19928;-90
2021/04/18 04:44:49;;;;;;;;;;;2.20;99.90;;;;;;5067068;28;19934;-91
2021/04/18 04:47:17;;;;;;;;;;;2.10;99.90;;;;;;5084048;28;19924;-91
2021/04/18 04:49:44;;;;;;;;;;;2.00;99.90;;;;;;5060448;28;19924;-91
2021/04/18 04:52:12;;;;;;;;;;;2.00;99.90;;;;;;5081436;28;19928;-90
2021/04/18 04:54:39;;;;;;;;;;;2.00;99.90;;;;;;5053397;28;19924;-91
2021/04/18 04:57:07;;;;;;;;;;;1.90;99.90;;;;;;5067909;28;20320;-90
2021/04/18 04:59:38;;;;;;;;;;;1.90;99.90;;;;;;5050230;28;20294;-90
2021/04/18 05:02:05;;;;;;;;;;;1.90;99.90;;;;;;5099157;28;19924;-89
2021/04/18 05:04:33;;;;;;;;;;;1.90;99.90;;;;;;5090204;28;19931;-90
2021/04/18 05:07:01;;;;;;;;;;;1.90;99.90;;;;;;5085385;28;19936;-90
2021/04/18 05:09:28;;;;;;;;;;;1.90;99.90;;;;;;5070376;28;19921;-91
2021/04/18 05:11:55;;;;;;;;;;;1.90;99.90;;;;;;5072175;28;19932;-90
2021/04/18 05:14:23;;;;;;;;;;;1.80;99.90;;;;;;5070192;28;19931;-90
2021/04/18 05:16:50;;;;;;;;;;;;;;;;;;5101611;28;20375;-89
2021/04/18 05:19:17;;;;;;;;;;;1.90;99.90;;;;;;5055122;28;19924;-90
2021/04/18 05:21:44;;;;;;;;;;;1.90;99.90;;;;;;5038845;28;19928;-91
2021/04/18 05:24:12;;;;;;;;;;;1.90;99.90;;;;;;5099194;28;20038;-90
2021/04/18 05:26:40;;;;;;;;;;;0.30;99.90;;;;;;5061487;28;19932;-90
2021/04/18 05:29:07;;;;;;;;;;;2.00;99.90;;;;;;5074379;28;19927;-91
2021/04/18 05:31:34;;;;;;;;;;;1.90;99.90;;;;;;5069304;28;19935;-91
2021/04/18 05:34:01;;;;;;;;;;;2.00;99.90;;;;;;5065365;28;19920;-90
2021/04/18 05:36:29;;;;;;;;;;;2.00;99.90;;;;;;5063235;28;20026;-91
2021/04/18 05:38:56;;;;;;;;;;;2.10;99.90;;;;;;5060522;28;20315;-90
2021/04/18 05:41:23;;;;;;;;;;;2.10;99.90;;;;;;5060288;28;19925;-90
2021/04/18 05:43:50;;;;;;;;;;;2.10;99.90;;;;;;5087593;28;19932;-90
2021/04/18 05:46:17;;;;;;;;;;;2.20;99.90;;;;;;5096500;28;19955;-90
2021/04/18 05:48:45;;;;;;;;;;;2.40;99.90;;;;;;5081174;28;19928;-90
2021/04/18 05:51:12;;;;;;;;;;;2.20;99.90;;;;;;5065179;28;19939;-90
2021/04/18 05:53:39;;;;;;;;;;;2.40;99.90;;;;;;5098433;28;19931;-90
2021/04/18 05:56:07;;;;;;;;;;;2.50;99.90;;;;;;5060297;28;19928;-89
2021/04/18 05:58:34;;;;;;;;;;;2.60;99.90;;;;;;5030580;28;19924;-91
2021/04/18 06:01:01;;;;;;;;;;;2.50;99.90;;;;;;5036206;28;19939;-90
2021/04/18 06:03:28;;;;;;;;;;;2.70;99.90;;;;;;5078820;28;19924;-91
2021/04/18 06:05:56;;;;;;;;;;;2.80;99.90;;;;;;5100765;28;20299;-90
2021/04/18 06:08:24;;;;;;;;;;;2.90;99.90;;;;;;5072878;28;20385;-90
2021/04/18 06:10:51;;;;;;;;;;;3.00;99.90;;;;;;5061294;28;19932;-90
2021/04/18 06:13:23;;;;;;;;;;;3.00;99.90;;;;;;5058072;28;19935;-90
2021/04/18 06:15:51;;;;;;;;;;;3.00;99.90;;;;;;5056377;28;19931;-90
2021/04/18 06:18:29;;;;;;;;;;;3.20;99.90;;;;;;5061252;28;19924;-91
2021/04/18 06:20:56;;;;;;;;;;;3.30;99.90;;;;;;5074327;28;19931;-90
2021/04/18 06:23:23;;;;;;;;;;;3.30;99.90;;;;;;5103471;28;19939;-90
2021/04/18 06:25:50;;;;;;;;;;;3.50;99.90;;;;;;5059524;28;20406;-90
2021/04/18 06:28:19;;;;;;;;;;;3.50;99.90;;;;;;5086564;28;19939;-90
2021/04/18 06:30:47;;;;;;;;;;;3.60;99.90;;;;;;5054394;28;20000;-90
2021/04/18 06:33:14;;;;;;;;;;;3.70;99.90;;;;;;5095365;28;19923;-91
2021/04/18 06:35:42;;;;;;;;;;;3.90;99.90;;;;;;5096038;28;20010;-90
2021/04/18 06:38:12;;;;;;;;;;;3.90;99.90;;;;;;5070774;28;19919;-90
2021/04/18 06:40:39;;;;;;;;;;;3.70;99.90;;;;;;5092873;28;19924;-91
2021/04/18 06:43:08;;;;;;;;;;;4.10;99.90;;;;;;5095799;28;19924;-91
2021/04/18 06:45:36;;;;;;;;;;;4.10;99.90;;;;;;5058235;28;19924;-91
2021/04/18 06:48:04;;;;;;;;;;;4.20;99.90;;;;;;5095698;28;19928;-91
2021/04/18 06:50:31;;;;;;;;;;;4.70;99.90;;;;;;5091472;28;19924;-90
2021/04/18 06:53:06;;;;;;;;;;;4.50;99.90;;;;;;5067141;28;19931;-91
2021/04/18 06:55:34;;;;;;;;;;;4.40;99.90;;;;;;5055950;28;19924;-90
2021/04/18 06:58:01;;;;;;;;;;;4.60;99.90;;;;;;5059038;28;19932;-90
2021/04/18 07:00:28;;;;;;;;;;;4.70;99.90;;;;;;5065755;28;19925;-90
2021/04/18 07:03:08;;;;;;;;;;;3.20;99.90;;;;;;5078223;28;19932;-90
2021/04/18 07:05:44;;;;;;;;;;;4.80;99.90;;;;;;5068312;28;19935;-92
2021/04/18 07:08:21;;;;;;;;;;;5.00;99.90;;;;;;5060108;28;20207;-90
2021/04/18 07:10:49;;;;;;;;;;;5.10;99.90;;;;;;5075448;28;20543;-90
2021/04/18 07:13:18;;;;;;;;;;;5.30;99.90;;;;;;5084998;28;19939;-89
2021/04/18 07:15:46;;;;;;;;;;;5.30;99.90;;;;;;5073731;28;19913;-89
2021/04/18 07:18:33;;;;;;;;;;;5.40;99.90;;;;;;5087556;28;19939;-89
2021/04/18 07:21:01;;;;;;;;;;;5.60;99.90;;;;;;5079982;28;20121;-89
2021/04/18 07:23:30;;;;;;;;;;;7.90;99.90;;;;;;5077785;28;19923;-90
2021/04/18 07:25:59;;;;;;;;;;;6.00;99.90;;;;;;5062858;28;20346;-89
2021/04/18 07:28:28;;;;;;;;;;;5.90;99.90;;;;;;5078029;28;20251;-90
2021/04/18 07:31:00;;;;;;;;;;;5.90;99.90;;;;;;5093837;28;19954;-89
2021/04/18 07:33:28;;;;;;;;;;;6.80;99.90;;;;;;5073645;28;19927;-89
2021/04/18 07:35:57;;;;;;;;;;;6.10;99.90;;;;;;5103669;28;19934;-90
2021/04/18 07:38:26;;;;;;;;;;;6.30;99.90;;;;;;5065644;28;19951;-90
2021/04/18 07:40:54;;;;;;;;;;;6.50;99.90;;;;;;5085918;28;19932;-90
2021/04/18 07:43:22;;;;;;;;;;;6.50;99.90;;;;;;5061255;28;19928;-90
2021/04/18 07:45:51;;;;;;;;;;;6.50;99.90;;;;;;5046076;28;20520;-89
2021/04/18 07:48:19;;;;;;;;;;;6.60;99.90;;;;;;5057628;28;19925;-89
2021/04/18 07:50:48;;;;;;;;;;;6.50;99.90;;;;;;5054631;28;19951;-88
2021/04/18 07:53:16;;;;;;;;;;;6.70;99.90;;;;;;5062580;28;20303;-89
2021/04/18 07:55:43;;;;;;;;;;;6.70;99.90;;;;;;5051897;28;19925;-90
2021/04/18 07:58:11;;;;;;;;;;;6.80;99.90;;;;;;5060000;28;19928;-90
2021/04/18 08:00:38;;;;;;;;;;;7.10;99.90;;;;;;5047690;28;20384;-91
2021/04/18 08:03:06;;;;;;;;;;;6.90;99.90;;;;;;5061728;28;19925;-89
2021/04/18 08:05:34;;;;;;;;;;;6.90;99.90;;;;;;5058056;28;20376;-90
2021/04/18 08:08:01;;;;;;;;;;;7.20;99.90;;;;;;5070840;28;19992;-89
2021/04/18 08:10:35;;;;;;;;;;;7.20;99.90;;;;;;5053729;28;19924;-90
2021/04/18 08:13:08;;;;;;;;;;;7.30;99.90;;;;;;5061534;28;19924;-89
2021/04/18 08:15:57;;;;;;;;;;;7.50;99.90;;;;;;5049921;28;19924;-91
2021/04/18 08:18:29;;;;;;;;;;;7.50;99.90;;;;;;5049650;28;19924;-90
2021/04/18 08:20:57;;;;;;;;;;;7.60;99.90;;;;;;5081491;28;20299;-87
2021/04/18 08:23:35;;;;;;;;;;;7.80;99.90;;;;;;5073946;28;19936;-90
2021/04/18 08:26:10;;;;;;;;;;;7.90;99.90;;;;;;5063390;28;20291;-90
2021/04/18 08:28:56;;;;;;;;;;;8.00;99.90;;;;;;5053789;28;19950;-90
2021/04/18 08:31:24;;;;;;;;;;;8.00;99.90;;;;;;5078654;28;19924;-92
2021/04/18 08:33:53;;;;;;;;;;;8.20;99.90;;;;;;5075576;28;19928;-91
2021/04/18 08:36:22;;;;;;;;;;;8.00;99.90;;;;;;5069933;28;19935;-91
2021/04/18 08:38:59;;;;;;;;;;;8.30;99.90;;;;;;5080105;28;19924;-91
2021/04/18 08:41:40;;;;;;;;;;;9.90;99.90;;;;;;5064843;28;19925;-90
2021/04/18 08:44:15;;;;;;;;;;;8.60;99.90;;;;;;5054696;28;19932;-91
2021/04/18 08:46:43;;;;;;;;;;;8.70;99.90;;;;;;5067298;28;19924;-90
2021/04/18 08:49:11;;;;;;;;;;;8.70;99.90;;;;;;5064919;28;20046;-90
2021/04/18 08:51:39;;;;;;;;;;;8.90;99.90;;;;;;5076669;28;19925;-90
2021/04/18 08:54:06;;;;;;;;;;;8.90;99.90;;;;;;5076128;28;19932;-91
2021/04/18 08:56:47;;;;;;;;;;;9.00;99.90;;;;;;5073555;28;19913;-89
2021/04/18 08:59:16;;;;;;;;;;;9.20;99.90;;;;;;5059194;28;19924;-91
2021/04/18 09:02:00;;;;;;;;;;;9.30;99.90;;;;;;5065009;28;20411;-93
2021/04/18 09:04:29;;;;;;;;;;;9.30;97.20;;;;;;5057613;28;19929;-91
2021/04/18 09:06:56;;;;;;;;;;;9.40;98.10;;;;;;5047657;28;19925;-91
2021/04/18 09:09:24;;;;;;;;;;;9.30;98.70;;;;;;5055711;28;19935;-91
2021/04/18 09:11:52;;;;;;;;;;;9.40;97.80;;;;;;5072025;28;19928;-91
2021/04/18 09:14:24;;;;;;;;;;;9.50;98.40;;;;;;5025225;28;20380;-91
2021/04/18 09:17:14;;;;;;;;;;;9.40;96.30;;;;;;5049634;28;21239;-89
2021/04/18 09:19:45;;;;;;;;;;;9.60;95.70;;;;;;5046655;28;20386;-90
2021/04/18 09:22:14;;;;;;;;;;;9.80;96.00;;;;;;5053374;28;19931;-90
2021/04/18 09:24:42;;;;;;;;;;;;;;;;;;5049201;28;20150;-91
2021/04/18 09:27:10;;;;;;;;;;;9.90;96.20;;;;;;5041736;28;19929;-90
2021/04/18 09:29:51;;;;;;;;;;;9.90;94.60;;;;;;5056468;28;19935;-90
2021/04/18 09:32:21;;;;;;;;;;;10.00;94.70;;;;;;5048434;28;19929;-91
2021/04/18 09:34:48;;;;;;;;;;;10.00;94.10;;;;;;5042349;28;19925;-88
2021/04/18 09:37:16;;;;;;;;;;;10.00;93.80;;;;;;5046050;28;19925;-89
2021/04/18 09:39:43;;;;;;;;;;;10.20;93.80;;;;;;5035621;28;20312;-89
2021/04/18 09:42:10;;;;;;;;;;;10.10;93.10;;;;;;5048609;28;20376;-89
2021/04/18 09:44:42;;;;;;;;;;;10.20;93.20;;;;;;5075970;28;19963;-89
2021/04/18 09:47:18;;;;;;;;;;;10.20;92.50;;;;;;5057122;28;19924;-88
2021/04/18 09:49:47;;;;;;;;;;;10.10;92.20;;;;;;5078348;28;19942;-89
2021/04/18 09:52:35;;;;;;;;;;;10.50;92.00;;;;;;5077772;28;19936;-90
2021/04/18 09:55:06;;;;;;;;;;;10.50;91.70;;;;;;5049713;28;19938;-91
2021/04/18 09:57:47;;;;;;;;;;;10.80;90.40;;;;;;5049716;28;20387;-89
2021/04/18 10:00:20;;;;;;;;;;;10.60;88.90;;;;;;5060944;28;19935;-89
2021/04/18 10:02:57;;;;;;;;;;;10.70;87.80;;;;;;5059523;28;19947;-90
2021/04/18 10:05:25;;;;;;;;;;;10.80;87.40;;;;;;5076830;28;19935;-90
2021/04/18 10:08:12;;;;;;;;;;;10.90;89.50;;;;;;5049417;28;19928;-88
2021/04/18 10:10:39;;;;;;;;;;;11.00;84.80;;;;;;5072594;28;19935;-89
2021/04/18 10:13:06;;;;;;;;;;;10.90;84.50;;;;;;5060919;28;19935;-89
2021/04/18 10:15:33;;;;;;;;;;;11.20;87.90;;;;;;5063071;28;19932;-89
2021/04/18 10:18:10;;;;;;;;;;;11.30;84.90;;;;;;5075250;28;19927;-88
2021/04/18 10:20:37;;;;;;;;;;;11.30;84.10;;;;;;5059361;28;20384;-88
2021/04/18 10:23:09;;;;;;;;;;;11.50;81.80;;;;;;5071853;28;19928;-88
2021/04/18 10:25:37;;;;;;;;;;;11.50;82.20;;;;;;5051445;28;19924;-89
2021/04/18 10:28:05;;;;;;;;;;;11.60;80.90;;;;;;5066776;28;19928;-89
2021/04/18 10:30:33;;;;;;;;;;;11.60;81.40;;;;;;5056713;28;19924;-89
2021/04/18 10:33:00;;;;;;;;;;;11.60;83.00;;;;;;5054354;28;19928;-86
2021/04/18 10:35:27;;;;;;;;;;;11.00;79.80;;;;;;5059996;28;19935;-89
2021/04/18 10:37:54;;;;;;;;;;;11.60;80.70;;;;;;5054978;28;20640;-89
2021/04/18 10:40:23;;;;;;;;;;;11.60;81.50;;;;;;5057140;28;19931;-88
2021/04/18 10:42:50;;;;;;;;;;;11.80;80.40;;;;;;5052596;28;19935;-87
2021/04/18 10:45:32;;;;;;;;;;;12.20;80.10;;;;;;5051223;28;19932;-89
2021/04/18 10:47:59;;;;;;;;;;;11.90;76.60;;;;;;5059212;28;19953;-88
2021/04/18 10:50:26;;;;;;;;;;;12.00;78.50;;;;;;5043364;28;19932;-88
2021/04/18 10:52:53;;;;;;;;;;;11.90;79.20;;;;;;5035086;28;19924;-88
2021/04/18 10:55:20;;;;;;;;;;;12.10;79.20;;;;;;5073263;28;19924;-87
2021/04/18 10:57:47;;;;;;;;;;;12.20;78.20;;;;;;5045411;28;20387;-88
2021/04/18 11:00:15;;;;;;;;;;;12.30;78.00;;;;;;5041590;28;19932;-88
2021/04/18 11:02:43;;;;;;;;;;;12.50;78.10;;;;;;5035627;28;19923;-88
2021/04/18 11:05:11;;;;;;;;;;;12.50;77.80;;;;;;5065743;28;19924;-91
2021/04/18 11:07:59;;;;;;;;;;;12.70;78.00;;;;;;5082701;27;19924;-89
2021/04/18 11:10:30;;;;;;;;;;;13.00;77.40;;;;;;5049076;28;19936;-90
2021/04/18 11:12:58;;;;;;;;;;;13.00;75.00;;;;;;5054591;28;19924;-91
2021/04/18 11:15:25;;;;;;;;;;;12.90;74.90;;;;;;5065087;28;20030;-88
2021/04/18 11:17:57;;;;;;;;;;;13.20;74.10;;;;;;5049091;28;19924;-89
2021/04/18 11:20:26;;;;;;;;;;;13.10;74.50;;;;;;5063868;28;20642;-88
2021/04/18 11:22:54;;;;;;;;;;;13.20;74.00;;;;;;5065995;28;20536;-89
2021/04/18 11:25:21;;;;;;;;;;;13.20;73.80;;;;;;5037303;28;19932;-90
2021/04/18 11:27:48;;;;;;;;;;;13.10;71.00;;;;;;5062792;28;19924;-89
2021/04/18 11:30:16;;;;;;;;;;;13.20;73.90;;;;;;5056541;28;19929;-90
2021/04/18 11:32:43;;;;;;;;;;;13.20;74.00;;;;;;5060577;28;20431;-90
2021/04/18 11:35:11;;;;;;;;;;;13.10;72.50;;;;;;5070627;28;20315;-91
2021/04/18 11:37:39;;;;;;;;;;;13.30;73.20;;;;;;5045617;28;19936;-90
2021/04/18 11:40:15;;;;;;;;;;;13.60;73.00;;;;;;5062768;28;19951;-90
2021/04/18 11:42:45;;;;;;;;;;;13.70;72.00;;;;;;5055797;28;19929;-91
2021/04/18 11:45:13;;;;;;;;;;;13.80;71.50;;;;;;5061427;28;19955;-91
2021/04/18 11:47:42;;;;;;;;;;;14.00;70.90;;;;;;5032825;28;19925;-92
2021/04/18 11:50:09;;;;;;;;;;;14.00;71.20;;;;;;5041330;28;19935;-87
2021/04/18 11:52:37;;;;;;;;;;;16.00;70.20;;;;;;5062386;28;19951;-88
2021/04/18 11:55:05;;;;;;;;;;;14.30;70.90;;;;;;5072276;28;19925;-89
2021/04/18 11:57:32;;;;;;;;;;;14.40;69.30;;;;;;5057310;28;19940;-88
2021/04/18 11:59:59;;;;;;;;;;;14.70;68.70;;;;;;5046685;28;20388;-88
2021/04/18 12:02:27;;;;;;;;;;;14.60;68.80;;;;;;5042439;28;19929;-88
2021/04/18 12:04:54;;;;;;;;;;;14.60;69.40;;;;;;5049551;28;19929;-91
2021/04/18 12:07:21;;;;;;;;;;;14.90;67.90;;;;;;5051163;28;20141;-89
2021/04/18 12:09:48;;;;;;;;;;;14.80;68.90;;;;;;5057179;28;19929;-89
2021/04/18 12:12:16;;;;;;;;;;;15.20;67.30;;;;;;5061073;28;19919;-89
2021/04/18 12:14:43;;;;;;;;;;;15.20;67.00;;;;;;5052261;28;19925;-89
2021/04/18 12:17:10;;;;;;;;;;;15.60;66.90;;;;;;5061811;28;19928;-88
2021/04/18 12:19:38;;;;;;;;;;;15.70;67.10;;;;;;5040689;28;19929;-90
2021/04/18 12:22:05;;;;;;;;;;;16.10;67.30;;;;;;5019926;28;19929;-87
2021/04/18 12:24:32;;;;;;;;;;;16.20;64.50;;;;;;5041435;28;20451;-87
2021/04/18 12:26:59;;;;;;;;;;;16.30;63.90;;;;;;5038618;28;19936;-88
2021/04/18 12:29:27;;;;;;;;;;;16.30;65.10;;;;;;5040818;28;19948;-87
2021/04/18 12:31:54;;;;;;;;;;;16.30;63.90;;;;;;5031249;28;21483;-88
2021/04/18 12:34:22;;;;;;;;;;;16.30;62.90;;;;;;5004905;28;20390;-88
2021/04/18 12:36:49;;;;;;;;;;;16.10;62.90;;;;;;5023514;28;19928;-89
2021/04/18 12:39:16;;;;;;;;;;;16.40;63.50;;;;;;5048104;28;19951;-89
2021/04/18 12:41:43;;;;;;;;;;;16.50;64.30;;;;;;5053258;28;19935;-88
2021/04/18 12:44:13;;;;;;;;;;;16.60;62.10;;;;;;5054411;28;19929;-91
2021/04/18 12:46:41;;;;;;;;;;;16.60;62.80;;;;;;5032853;28;20385;-88
2021/04/18 12:49:14;;;;;;;;;;;16.70;61.80;;;;;;5047353;28;19925;-89
2021/04/18 12:51:43;;;;;;;;;;;16.90;61.50;;;;;;5042262;28;19932;-89
2021/04/18 12:54:09;;;;;;;;;;;16.80;60.60;;;;;;5040609;28;19936;-89
2021/04/18 12:56:37;;;;;;;;;;;17.10;60.30;;;;;;5040365;28;20312;-89
2021/04/18 12:59:05;;;;;;;;;;;17.10;62.10;;;;;;5027014;28;19929;-89
2021/04/18 13:01:32;;;;;;;;;;;17.20;62.10;;;;;;5022104;28;19929;-88
2021/04/18 13:03:59;;;;;;;;;;;17.30;61.40;;;;;;5026789;28;19948;-88
2021/04/18 13:06:26;;;;;;;;;;;17.60;60.30;;;;;;5044255;28;19929;-88
2021/04/18 13:08:53;;;;;;;;;;;17.50;58.80;;;;;;5029814;28;19936;-88
2021/04/18 13:11:20;;;;;;;;;;;17.30;59.20;;;;;;5021793;28;20280;-89
2021/04/18 13:13:48;;;;;;;;;;;17.40;58.30;;;;;;5022313;28;19938;-88
2021/04/18 13:16:15;;;;;;;;;;;17.20;58.80;;;;;;5040744;28;19940;-86
2021/04/18 13:18:42;;;;;;;;;;;17.20;59.50;;;;;;5043446;28;19929;-85
2021/04/18 13:21:12;;;;;;;;;;;17.40;59.60;;;;;;5046909;28;19929;-86
2021/04/18 13:23:39;;;;;;;;;;;17.20;58.40;;;;;;5027920;28;19933;-87
2021/04/18 13:26:08;;;;;;;;;;;17.70;59.10;;;;;;5054938;28;19935;-87
2021/04/18 13:28:37;;;;;;;;;;;17.80;59.50;;;;;;5069073;28;19939;-87
2021/04/18 13:31:05;;;;;;;;;;;17.80;59.10;;;;;;5059021;28;19928;-86
2021/04/18 13:33:32;;;;;;;;;;;17.90;58.50;;;;;;5056389;28;19932;-87
2021/04/18 13:36:00;;;;;;;;;;;18.00;58.20;;;;;;5047459;28;19936;-86
2021/04/18 13:38:27;;;;;;;;;;;18.30;57.70;;;;;;5030828;28;19946;-86
2021/04/18 13:40:55;;;;;;;;;;;18.30;56.30;;;;;;5043585;28;19926;-87
2021/04/18 13:43:22;;;;;;;;;;;18.60;56.70;;;;;;5007119;28;19929;-88
2021/04/18 13:45:49;;;;;;;;;;;18.60;56.00;;;;;;5014872;28;19925;-87
2021/04/18 13:48:18;;;;;;;;;;;18.80;56.40;;;;;;5018032;28;19932;-87
2021/04/18 13:50:46;;;;;;;;;;;19.10;56.30;;;;;;5026164;28;19932;-88
2021/04/18 13:53:15;;;;;;;;;;;19.40;55.50;;;;;;5049184;28;19936;-89
2021/04/18 13:55:43;;;;;;;;;;;19.60;55.50;;;;;;5036556;28;19929;-88
2021/04/18 13:58:10;;;;;;;;;;;19.70;55.30;;;;;;5040887;28;19925;-85
2021/04/18 14:00:38;;;;;;;;;;;20.00;54.20;;;;;;5039591;28;19929;-87
2021/04/18 14:03:05;;;;;;;;;;;20.20;54.30;;;;;;5051029;28;19924;-88
2021/04/18 14:05:33;;;;;;;;;;;20.30;55.00;;;;;;5043841;28;19928;-87
2021/04/18 14:08:01;;;;;;;;;;;20.60;53.50;;;;;;5041581;28;19924;-87
2021/04/18 14:10:28;;;;;;;;;;;20.70;53.70;;;;;;5050157;28;19929;-86
2021/04/18 14:12:56;;;;;;;;;;;20.80;52.50;;;;;;5037634;28;19925;-86
2021/04/18 14:15:24;;;;;;;;;;;20.90;52.30;;;;;;5025756;28;19929;-86
2021/04/18 14:17:51;;;;;;;;;;;21.10;52.40;;;;;;5030643;28;19959;-87
2021/04/18 14:20:19;;;;;;;;;;;21.10;51.70;;;;;;5031055;28;19925;-87
2021/04/18 14:22:46;;;;;;;;;;;21.50;51.20;;;;;;5029179;28;20589;-87
2021/04/18 14:25:13;;;;;;;;;;;21.70;51.20;;;;;;5032250;28;19936;-83
2021/04/18 14:27:41;;;;;;;;;;;22.00;50.40;;;;;;5038872;28;19932;-86
2021/04/18 14:30:09;;;;;;;;;;;22.00;50.40;;;;;;5032427;28;20033;-86
2021/04/18 14:32:36;;;;;;;;;;;22.10;51.00;;;;;;5030091;28;19956;-86
2021/04/18 14:35:05;;;;;;;;;;;22.70;48.80;;;;;;5044313;28;19935;-87
2021/04/18 14:37:32;;;;;;;;;;;22.50;49.20;;;;;;5029574;28;20494;-87
2021/04/18 14:40:00;;;;;;;;;;;22.50;49.00;;;;;;5039542;28;19929;-86